North Perry, Ohio
Current Conditions -  °F | °C
As of 9:45 AM on Thursday 23 Oct 2014 (Local Time) from KCGF Reporting Station
Scattered Clouds Scattered Clouds  
Wind Chill: 54°   Ceiling: Unl
Heat Index: 54°   Visibility: 15mi
Dew Point: 50°   Wind: 12mph
Humidity: 88%   Direction: 10°N
Pressure: 30.2"   Gusts: NA
Location:  41.7672°N, 81.1422°W
Report Text: KCGF 231345Z 01010KT 15SM SCT010 12/10 A3020
Loading
Personal Weather Stations






























Interactive Weather Map
Tropical Storm Tracking
New forecast layout! Learn more

10-Day Weather Forecast

Advertisements
Track Severe Weather on mobile